sensor_id;sensor_type;location;lat;lon;timestamp;temperature;humidity
4425;DHT22;2225;53.568;13.266;2023-12-14T00:01:57;6.80;99.70
4425;DHT22;2225;53.568;13.266;2023-12-14T00:04:24;6.80;99.70
4425;DHT22;2225;53.568;13.266;2023-12-14T00:06:51;6.80;99.80
4425;DHT22;2225;53.568;13.266;2023-12-14T00:09:18;6.80;99.80
4425;DHT22;2225;53.568;13.266;2023-12-14T00:11:45;6.90;99.80
4425;DHT22;2225;53.568;13.266;2023-12-14T00:14:12;6.80;99.80
4425;DHT22;2225;53.568;13.266;2023-12-14T00:16:39;6.90;99.80
4425;DHT22;2225;53.568;13.266;2023-12-14T00:19:06;6.90;99.80
4425;DHT22;2225;53.568;13.266;2023-12-14T00:21:33;6.90;99.80
4425;DHT22;2225;53.568;13.266;2023-12-14T00:24:00;6.90;99.90
4425;DHT22;2225;53.568;13.266;2023-12-14T00:26:27;6.90;99.90
4425;DHT22;2225;53.568;13.266;2023-12-14T00:28:54;7.00;99.90
4425;DHT22;2225;53.568;13.266;2023-12-14T00:31:27;7.00;99.90
4425;DHT22;2225;53.568;13.266;2023-12-14T00:33:55;7.00;99.90
4425;DHT22;2225;53.568;13.266;2023-12-14T00:36:22;7.00;99.90
4425;DHT22;2225;53.568;13.266;2023-12-14T00:38:49;7.00;99.90
4425;DHT22;2225;53.568;13.266;2023-12-14T00:41:16;7.00;99.90
4425;DHT22;2225;53.568;13.266;2023-12-14T00:43:42;7.00;99.90
4425;DHT22;2225;53.568;13.266;2023-12-14T00:46:10;7.00;99.90
4425;DHT22;2225;53.568;13.266;2023-12-14T00:48:37;7.00;99.90
4425;DHT22;2225;53.568;13.266;2023-12-14T00:51:04;7.00;99.90
4425;DHT22;2225;53.568;13.266;2023-12-14T00:53:31;7.00;99.90
4425;DHT22;2225;53.568;13.266;2023-12-14T00:55:58;7.00;99.90
4425;DHT22;2225;53.568;13.266;2023-12-14T00:58:25;7.00;99.90
4425;DHT22;2225;53.568;13.266;2023-12-14T01:00:52;7.10;99.90
4425;DHT22;2225;53.568;13.266;2023-12-14T01:03:21;7.10;99.90
4425;DHT22;2225;53.568;13.266;2023-12-14T01:05:48;7.00;99.90
4425;DHT22;2225;53.568;13.266;2023-12-14T01:08:15;7.10;99.90
4425;DHT22;2225;53.568;13.266;2023-12-14T01:10:42;7.10;99.90
4425;DHT22;2225;53.568;13.266;2023-12-14T01:13:09;7.10;99.90
4425;DHT22;2225;53.568;13.266;2023-12-14T01:15:36;7.10;99.90
4425;DHT22;2225;53.568;13.266;2023-12-14T01:18:03;7.10;99.90
4425;DHT22;2225;53.568;13.266;2023-12-14T01:20:30;7.10;99.90
4425;DHT22;2225;53.568;13.266;2023-12-14T01:22:57;7.10;99.90
4425;DHT22;2225;53.568;13.266;2023-12-14T01:25:25;7.10;99.90
4425;DHT22;2225;53.568;13.266;2023-12-14T01:27:52;7.10;99.90
4425;DHT22;2225;53.568;13.266;2023-12-14T01:30:19;7.10;99.90
4425;DHT22;2225;53.568;13.266;2023-12-14T01:32:46;7.20;99.90
4425;DHT22;2225;53.568;13.266;2023-12-14T01:35:12;7.20;99.90
4425;DHT22;2225;53.568;13.266;2023-12-14T01:37:39;7.20;99.90
4425;DHT22;2225;53.568;13.266;2023-12-14T01:40:07;7.20;99.80
4425;DHT22;2225;53.568;13.266;2023-12-14T01:42:34;7.20;99.80
4425;DHT22;2225;53.568;13.266;2023-12-14T01:45:02;7.20;99.80
4425;DHT22;2225;53.568;13.266;2023-12-14T01:47:30;7.20;99.90
4425;DHT22;2225;53.568;13.266;2023-12-14T01:49:57;7.20;99.80
4425;DHT22;2225;53.568;13.266;2023-12-14T01:52:24;7.20;99.80
4425;DHT22;2225;53.568;13.266;2023-12-14T01:54:51;7.20;99.80
4425;DHT22;2225;53.568;13.266;2023-12-14T01:57:18;7.20;99.80
4425;DHT22;2225;53.568;13.266;2023-12-14T01:59:45;7.30;99.80
4425;DHT22;2225;53.568;13.266;2023-12-14T02:02:12;7.30;99.80
4425;DHT22;2225;53.568;13.266;2023-12-14T02:04:39;7.30;99.80
4425;DHT22;2225;53.568;13.266;2023-12-14T02:07:06;7.30;99.80
4425;DHT22;2225;53.568;13.266;2023-12-14T02:09:33;7.30;99.80
4425;DHT22;2225;53.568;13.266;2023-12-14T02:12:00;7.30;99.80
4425;DHT22;2225;53.568;13.266;2023-12-14T02:14:27;7.30;99.80
4425;DHT22;2225;53.568;13.266;2023-12-14T02:16:54;7.30;99.80
4425;DHT22;2225;53.568;13.266;2023-12-14T02:19:21;7.30;99.80
4425;DHT22;2225;53.568;13.266;2023-12-14T02:21:48;7.30;99.70
4425;DHT22;2225;53.568;13.266;2023-12-14T02:24:15;7.30;99.70
4425;DHT22;2225;53.568;13.266;2023-12-14T02:26:42;7.30;99.70
4425;DHT22;2225;53.568;13.266;2023-12-14T02:29:27;7.30;99.80
4425;DHT22;2225;53.568;13.266;2023-12-14T02:31:54;7.30;99.80
4425;DHT22;2225;53.568;13.266;2023-12-14T02:34:21;7.30;99.80
4425;DHT22;2225;53.568;13.266;2023-12-14T02:36:48;7.30;99.80
4425;DHT22;2225;53.568;13.266;2023-12-14T02:39:15;7.30;99.80
4425;DHT22;2225;53.568;13.266;2023-12-14T02:41:42;7.20;99.80
4425;DHT22;2225;53.568;13.266;2023-12-14T02:44:09;7.30;99.80
4425;DHT22;2225;53.568;13.266;2023-12-14T02:46:36;7.30;99.80
4425;DHT22;2225;53.568;13.266;2023-12-14T02:49:03;7.30;99.80
4425;DHT22;2225;53.568;13.266;2023-12-14T02:51:30;7.30;99.80
4425;DHT22;2225;53.568;13.266;2023-12-14T02:53:57;7.30;99.80
4425;DHT22;2225;53.568;13.266;2023-12-14T02:56:24;7.30;99.80
4425;DHT22;2225;53.568;13.266;2023-12-14T02:58:51;7.30;99.90
4425;DHT22;2225;53.568;13.266;2023-12-14T03:01:20;7.30;99.80
4425;DHT22;2225;53.568;13.266;2023-12-14T03:03:48;7.30;99.80
4425;DHT22;2225;53.568;13.266;2023-12-14T03:06:15;7.40;99.90
4425;DHT22;2225;53.568;13.266;2023-12-14T03:08:42;7.30;99.90
4425;DHT22;2225;53.568;13.266;2023-12-14T03:11:08;7.30;99.90
4425;DHT22;2225;53.568;13.266;2023-12-14T03:13:36;7.30;99.90
4425;DHT22;2225;53.568;13.266;2023-12-14T03:16:03;7.30;99.90
4425;DHT22;2225;53.568;13.266;2023-12-14T03:18:30;7.30;99.90
4425;DHT22;2225;53.568;13.266;2023-12-14T03:20:57;7.30;99.90
4425;DHT22;2225;53.568;13.266;2023-12-14T03:23:24;7.30;99.90
4425;DHT22;2225;53.568;13.266;2023-12-14T03:25:51;7.30;99.90
4425;DHT22;2225;53.568;13.266;2023-12-14T03:28:18;7.30;99.90
4425;DHT22;2225;53.568;13.266;2023-12-14T03:30:45;7.30;99.90
4425;DHT22;2225;53.568;13.266;2023-12-14T03:33:12;7.40;99.90
4425;DHT22;2225;53.568;13.266;2023-12-14T03:35:39;7.40;99.90
4425;DHT22;2225;53.568;13.266;2023-12-14T03:38:08;7.40;99.90
4425;DHT22;2225;53.568;13.266;2023-12-14T03:40:35;7.40;99.90
4425;DHT22;2225;53.568;13.266;2023-12-14T03:43:02;7.40;99.90
4425;DHT22;2225;53.568;13.266;2023-12-14T03:45:30;7.40;99.90
4425;DHT22;2225;53.568;13.266;2023-12-14T03:47:57;7.40;99.90
4425;DHT22;2225;53.568;13.266;2023-12-14T03:50:24;7.40;99.90
4425;DHT22;2225;53.568;13.266;2023-12-14T03:52:51;7.40;99.90
4425;DHT22;2225;53.568;13.266;2023-12-14T03:55:17;7.40;99.90
4425;DHT22;2225;53.568;13.266;2023-12-14T03:57:44;7.40;99.90
4425;DHT22;2225;53.568;13.266;2023-12-14T04:00:13;7.40;99.90
4425;DHT22;2225;53.568;13.266;2023-12-14T04:02:40;7.30;99.90
4425;DHT22;2225;53.568;13.266;2023-12-14T04:05:08;7.30;99.80
4425;DHT22;2225;53.568;13.266;2023-12-14T04:07:37;7.30;99.90
4425;DHT22;2225;53.568;13.266;2023-12-14T04:10:09;7.30;99.90
4425;DHT22;2225;53.568;13.266;2023-12-14T04:12:37;7.40;99.90
4425;DHT22;2225;53.568;13.266;2023-12-14T04:15:05;7.30;99.90
4425;DHT22;2225;53.568;13.266;2023-12-14T04:17:33;7.30;99.90
4425;DHT22;2225;53.568;13.266;2023-12-14T04:20:01;7.30;99.90
4425;DHT22;2225;53.568;13.266;2023-12-14T04:22:29;7.30;99.90
4425;DHT22;2225;53.568;13.266;2023-12-14T04:24:56;7.30;99.90
4425;DHT22;2225;53.568;13.266;2023-12-14T04:27:23;7.40;99.90
4425;DHT22;2225;53.568;13.266;2023-12-14T04:29:55;7.40;99.90
4425;DHT22;2225;53.568;13.266;2023-12-14T04:32:22;7.30;99.90
4425;DHT22;2225;53.568;13.266;2023-12-14T04:34:49;7.30;99.90
4425;DHT22;2225;53.568;13.266;2023-12-14T04:37:16;7.40;99.90
4425;DHT22;2225;53.568;13.266;2023-12-14T04:39:43;7.40;99.90
4425;DHT22;2225;53.568;13.266;2023-12-14T04:42:10;7.40;99.90
4425;DHT22;2225;53.568;13.266;2023-12-14T04:44:37;7.40;99.90
4425;DHT22;2225;53.568;13.266;2023-12-14T04:47:04;7.40;99.90
4425;DHT22;2225;53.568;13.266;2023-12-14T04:49:31;7.40;99.80
4425;DHT22;2225;53.568;13.266;2023-12-14T04:51:58;7.40;99.90
4425;DHT22;2225;53.568;13.266;2023-12-14T04:54:25;7.40;99.80
4425;DHT22;2225;53.568;13.266;2023-12-14T04:56:52;7.40;99.70
4425;DHT22;2225;53.568;13.266;2023-12-14T04:59:19;7.40;99.60
4425;DHT22;2225;53.568;13.266;2023-12-14T05:01:45;7.40;99.70
4425;DHT22;2225;53.568;13.266;2023-12-14T05:04:12;7.40;99.40
4425;DHT22;2225;53.568;13.266;2023-12-14T05:06:39;7.40;99.30
4425;DHT22;2225;53.568;13.266;2023-12-14T05:09:07;7.40;99.30
4425;DHT22;2225;53.568;13.266;2023-12-14T05:11:34;7.40;99.10
4425;DHT22;2225;53.568;13.266;2023-12-14T05:14:01;7.40;99.00
4425;DHT22;2225;53.568;13.266;2023-12-14T05:16:28;7.40;98.90
4425;DHT22;2225;53.568;13.266;2023-12-14T05:18:55;7.50;98.90
4425;DHT22;2225;53.568;13.266;2023-12-14T05:21:22;7.40;98.90
4425;DHT22;2225;53.568;13.266;2023-12-14T05:23:49;7.40;98.90
4425;DHT22;2225;53.568;13.266;2023-12-14T05:26:16;7.50;98.90
4425;DHT22;2225;53.568;13.266;2023-12-14T05:28:44;7.50;98.90
4425;DHT22;2225;53.568;13.266;2023-12-14T05:31:11;7.50;98.90
4425;DHT22;2225;53.568;13.266;2023-12-14T05:33:39;7.50;98.70
4425;DHT22;2225;53.568;13.266;2023-12-14T05:36:06;7.50;98.60
4425;DHT22;2225;53.568;13.266;2023-12-14T05:38:40;7.50;98.30
4425;DHT22;2225;53.568;13.266;2023-12-14T05:41:08;7.50;98.40
4425;DHT22;2225;53.568;13.266;2023-12-14T05:43:35;7.50;98.40
4425;DHT22;2225;53.568;13.266;2023-12-14T05:46:03;7.50;98.30
4425;DHT22;2225;53.568;13.266;2023-12-14T05:48:30;7.50;98.30
4425;DHT22;2225;53.568;13.266;2023-12-14T05:51:00;7.50;98.20
4425;DHT22;2225;53.568;13.266;2023-12-14T05:53:27;7.60;98.20
4425;DHT22;2225;53.568;13.266;2023-12-14T05:55:54;7.60;98.10
4425;DHT22;2225;53.568;13.266;2023-12-14T05:58:21;7.60;98.60
4425;DHT22;2225;53.568;13.266;2023-12-14T06:00:48;7.60;98.00
4425;DHT22;2225;53.568;13.266;2023-12-14T06:03:15;7.60;98.10
4425;DHT22;2225;53.568;13.266;2023-12-14T06:05:42;7.60;98.20
4425;DHT22;2225;53.568;13.266;2023-12-14T06:08:09;7.60;98.20
4425;DHT22;2225;53.568;13.266;2023-12-14T06:10:36;7.60;98.10
4425;DHT22;2225;53.568;13.266;2023-12-14T06:13:03;7.70;98.30
4425;DHT22;2225;53.568;13.266;2023-12-14T06:15:30;7.70;98.30
4425;DHT22;2225;53.568;13.266;2023-12-14T06:17:57;7.70;98.20
4425;DHT22;2225;53.568;13.266;2023-12-14T06:20:24;7.70;98.10
4425;DHT22;2225;53.568;13.266;2023-12-14T06:22:52;7.70;98.10
4425;DHT22;2225;53.568;13.266;2023-12-14T06:25:19;7.70;98.00
4425;DHT22;2225;53.568;13.266;2023-12-14T06:27:46;7.70;98.00
4425;DHT22;2225;53.568;13.266;2023-12-14T06:30:13;7.70;97.90
4425;DHT22;2225;53.568;13.266;2023-12-14T06:32:40;7.70;98.00
4425;DHT22;2225;53.568;13.266;2023-12-14T06:35:08;7.70;97.80
4425;DHT22;2225;53.568;13.266;2023-12-14T06:37:35;7.70;97.80
4425;DHT22;2225;53.568;13.266;2023-12-14T06:40:02;7.70;97.80
4425;DHT22;2225;53.568;13.266;2023-12-14T06:42:29;7.70;97.80
4425;DHT22;2225;53.568;13.266;2023-12-14T06:44:57;7.70;97.70
4425;DHT22;2225;53.568;13.266;2023-12-14T06:47:24;7.70;97.60
4425;DHT22;2225;53.568;13.266;2023-12-14T06:49:52;7.70;97.60
4425;DHT22;2225;53.568;13.266;2023-12-14T06:52:19;7.70;97.40
4425;DHT22;2225;53.568;13.266;2023-12-14T06:54:45;7.70;97.50
4425;DHT22;2225;53.568;13.266;2023-12-14T06:57:12;7.70;97.40
4425;DHT22;2225;53.568;13.266;2023-12-14T06:59:39;7.70;97.40
4425;DHT22;2225;53.568;13.266;2023-12-14T07:02:07;7.70;97.40
4425;DHT22;2225;53.568;13.266;2023-12-14T07:04:34;7.70;97.40
4425;DHT22;2225;53.568;13.266;2023-12-14T07:07:01;7.70;97.30
4425;DHT22;2225;53.568;13.266;2023-12-14T07:09:28;7.70;97.30
4425;DHT22;2225;53.568;13.266;2023-12-14T07:11:55;7.70;97.40
4425;DHT22;2225;53.568;13.266;2023-12-14T07:14:22;7.70;97.30
4425;DHT22;2225;53.568;13.266;2023-12-14T07:16:51;7.70;97.40
4425;DHT22;2225;53.568;13.266;2023-12-14T07:19:18;7.70;97.40
4425;DHT22;2225;53.568;13.266;2023-12-14T07:21:45;7.70;97.20
4425;DHT22;2225;53.568;13.266;2023-12-14T07:24:12;7.80;97.20
4425;DHT22;2225;53.568;13.266;2023-12-14T07:26:39;7.70;97.40
4425;DHT22;2225;53.568;13.266;2023-12-14T07:29:06;7.70;97.40
4425;DHT22;2225;53.568;13.266;2023-12-14T07:31:33;7.80;97.30
4425;DHT22;2225;53.568;13.266;2023-12-14T07:34:00;7.70;97.30
4425;DHT22;2225;53.568;13.266;2023-12-14T07:36:28;7.80;97.30
4425;DHT22;2225;53.568;13.266;2023-12-14T07:38:55;7.80;97.40
4425;DHT22;2225;53.568;13.266;2023-12-14T07:41:22;7.80;97.40
4425;DHT22;2225;53.568;13.266;2023-12-14T07:43:53;7.90;97.40
4425;DHT22;2225;53.568;13.266;2023-12-14T07:46:20;7.90;97.40
4425;DHT22;2225;53.568;13.266;2023-12-14T07:48:47;7.90;97.50
4425;DHT22;2225;53.568;13.266;2023-12-14T07:51:14;7.90;97.50
4425;DHT22;2225;53.568;13.266;2023-12-14T07:53:41;8.00;97.50
4425;DHT22;2225;53.568;13.266;2023-12-14T07:56:09;7.90;97.50
4425;DHT22;2225;53.568;13.266;2023-12-14T07:58:36;8.00;97.40
4425;DHT22;2225;53.568;13.266;2023-12-14T08:01:03;8.00;97.50
4425;DHT22;2225;53.568;13.266;2023-12-14T08:03:30;8.00;97.40
4425;DHT22;2225;53.568;13.266;2023-12-14T08:05:57;8.00;97.40
4425;DHT22;2225;53.568;13.266;2023-12-14T08:08:24;8.00;97.50
4425;DHT22;2225;53.568;13.266;2023-12-14T08:10:51;8.00;97.50
4425;DHT22;2225;53.568;13.266;2023-12-14T08:13:18;8.00;97.50
4425;DHT22;2225;53.568;13.266;2023-12-14T08:15:45;8.00;97.60
4425;DHT22;2225;53.568;13.266;2023-12-14T08:18:12;8.00;97.60
4425;DHT22;2225;53.568;13.266;2023-12-14T08:20:39;8.00;97.60
4425;DHT22;2225;53.568;13.266;2023-12-14T08:23:06;8.00;97.60
4425;DHT22;2225;53.568;13.266;2023-12-14T08:25:33;8.00;97.60
4425;DHT22;2225;53.568;13.266;2023-12-14T08:28:00;8.00;97.60
4425;DHT22;2225;53.568;13.266;2023-12-14T08:30:31;8.00;97.60
4425;DHT22;2225;53.568;13.266;2023-12-14T08:32:58;8.00;97.60
4425;DHT22;2225;53.568;13.266;2023-12-14T08:35:25;8.00;97.60
4425;DHT22;2225;53.568;13.266;2023-12-14T08:37:52;8.00;97.60
4425;DHT22;2225;53.568;13.266;2023-12-14T08:40:19;8.00;97.60
4425;DHT22;2225;53.568;13.266;2023-12-14T08:42:47;8.00;97.70
4425;DHT22;2225;53.568;13.266;2023-12-14T08:45:14;8.00;97.80
4425;DHT22;2225;53.568;13.266;2023-12-14T08:47:41;8.00;97.80
4425;DHT22;2225;53.568;13.266;2023-12-14T08:50:09;8.10;97.90
4425;DHT22;2225;53.568;13.266;2023-12-14T08:52:36;8.00;97.80
4425;DHT22;2225;53.568;13.266;2023-12-14T08:55:04;8.00;97.90
4425;DHT22;2225;53.568;13.266;2023-12-14T08:57:31;8.00;98.00
4425;DHT22;2225;53.568;13.266;2023-12-14T08:59:58;8.10;98.10
4425;DHT22;2225;53.568;13.266;2023-12-14T09:02:26;8.10;98.10
4425;DHT22;2225;53.568;13.266;2023-12-14T09:04:53;8.10;98.10
4425;DHT22;2225;53.568;13.266;2023-12-14T09:07:20;8.10;98.10
4425;DHT22;2225;53.568;13.266;2023-12-14T09:09:47;8.10;97.90
4425;DHT22;2225;53.568;13.266;2023-12-14T09:12:14;8.20;97.90
4425;DHT22;2225;53.568;13.266;2023-12-14T09:14:41;8.20;97.90
4425;DHT22;2225;53.568;13.266;2023-12-14T09:17:08;8.20;97.90
4425;DHT22;2225;53.568;13.266;2023-12-14T09:19:35;8.20;97.80
4425;DHT22;2225;53.568;13.266;2023-12-14T09:22:02;8.30;97.90
4425;DHT22;2225;53.568;13.266;2023-12-14T09:24:29;8.30;97.80
4425;DHT22;2225;53.568;13.266;2023-12-14T09:26:56;8.20;97.70
4425;DHT22;2225;53.568;13.266;2023-12-14T09:29:23;8.30;97.70
4425;DHT22;2225;53.568;13.266;2023-12-14T09:31:50;8.30;97.70
4425;DHT22;2225;53.568;13.266;2023-12-14T09:34:18;8.30;97.60
4425;DHT22;2225;53.568;13.266;2023-12-14T09:36:45;8.30;97.70
4425;DHT22;2225;53.568;13.266;2023-12-14T09:39:12;8.40;97.70
4425;DHT22;2225;53.568;13.266;2023-12-14T09:41:39;8.40;97.50
4425;DHT22;2225;53.568;13.266;2023-12-14T09:44:06;8.40;97.70
4425;DHT22;2225;53.568;13.266;2023-12-14T09:46:36;8.40;97.30
4425;DHT22;2225;53.568;13.266;2023-12-14T09:49:05;8.40;97.10
4425;DHT22;2225;53.568;13.266;2023-12-14T09:51:34;8.50;97.00
4425;DHT22;2225;53.568;13.266;2023-12-14T09:54:01;8.50;96.60
4425;DHT22;2225;53.568;13.266;2023-12-14T09:56:29;8.50;96.80
4425;DHT22;2225;53.568;13.266;2023-12-14T09:58:57;8.50;96.80
4425;DHT22;2225;53.568;13.266;2023-12-14T10:01:26;8.50;96.70
4425;DHT22;2225;53.568;13.266;2023-12-14T10:04:08;8.50;96.70
4425;DHT22;2225;53.568;13.266;2023-12-14T10:06:37;8.50;96.70
4425;DHT22;2225;53.568;13.266;2023-12-14T10:09:04;8.50;96.80
4425;DHT22;2225;53.568;13.266;2023-12-14T10:11:36;8.60;96.70
4425;DHT22;2225;53.568;13.266;2023-12-14T10:14:08;8.60;96.70
4425;DHT22;2225;53.568;13.266;2023-12-14T10:16:53;8.60;96.60
4425;DHT22;2225;53.568;13.266;2023-12-14T10:19:29;8.60;96.40
4425;DHT22;2225;53.568;13.266;2023-12-14T10:21:56;8.70;96.30
4425;DHT22;2225;53.568;13.266;2023-12-14T10:24:23;8.60;96.40
4425;DHT22;2225;53.568;13.266;2023-12-14T10:26:50;8.70;96.40
4425;DHT22;2225;53.568;13.266;2023-12-14T10:29:18;8.70;96.50
4425;DHT22;2225;53.568;13.266;2023-12-14T10:31:47;8.70;96.80
4425;DHT22;2225;53.568;13.266;2023-12-14T10:34:15;8.80;96.40
4425;DHT22;2225;53.568;13.266;2023-12-14T10:36:44;8.80;95.80
4425;DHT22;2225;53.568;13.266;2023-12-14T10:39:14;8.80;96.00
4425;DHT22;2225;53.568;13.266;2023-12-14T10:41:44;8.80;96.00
4425;DHT22;2225;53.568;13.266;2023-12-14T10:44:21;8.80;96.00
4425;DHT22;2225;53.568;13.266;2023-12-14T10:47:10;8.90;96.00
4425;DHT22;2225;53.568;13.266;2023-12-14T10:49:37;8.90;95.90
4425;DHT22;2225;53.568;13.266;2023-12-14T10:52:04;8.90;96.00
4425;DHT22;2225;53.568;13.266;2023-12-14T10:54:32;8.90;96.00
4425;DHT22;2225;53.568;13.266;2023-12-14T10:57:01;8.90;96.00
4425;DHT22;2225;53.568;13.266;2023-12-14T10:59:30;9.00;96.00
4425;DHT22;2225;53.568;13.266;2023-12-14T11:01:57;9.00;95.60
4425;DHT22;2225;53.568;13.266;2023-12-14T11:04:28;9.00;95.60
4425;DHT22;2225;53.568;13.266;2023-12-14T11:06:55;9.00;95.30
4425;DHT22;2225;53.568;13.266;2023-12-14T11:09:23;9.00;95.20
4425;DHT22;2225;53.568;13.266;2023-12-14T11:14:25;9.00;94.70
4425;DHT22;2225;53.568;13.266;2023-12-14T11:16:57;9.00;94.70
4425;DHT22;2225;53.568;13.266;2023-12-14T11:19:30;9.00;94.50
4425;DHT22;2225;53.568;13.266;2023-12-14T11:22:11;9.00;94.60
4425;DHT22;2225;53.568;13.266;2023-12-14T11:24:51;9.00;94.40
4425;DHT22;2225;53.568;13.266;2023-12-14T11:27:26;9.00;94.40
4425;DHT22;2225;53.568;13.266;2023-12-14T11:29:56;9.10;94.50
4425;DHT22;2225;53.568;13.266;2023-12-14T11:32:24;9.00;94.20
4425;DHT22;2225;53.568;13.266;2023-12-14T11:34:51;9.00;94.40
4425;DHT22;2225;53.568;13.266;2023-12-14T11:37:18;9.10;94.20
4425;DHT22;2225;53.568;13.266;2023-12-14T11:39:49;9.10;94.30
4425;DHT22;2225;53.568;13.266;2023-12-14T11:42:18;9.10;94.10
4425;DHT22;2225;53.568;13.266;2023-12-14T11:44:45;9.10;93.90
4425;DHT22;2225;53.568;13.266;2023-12-14T11:47:12;9.10;93.60
4425;DHT22;2225;53.568;13.266;2023-12-14T11:49:39;9.10;93.90
4425;DHT22;2225;53.568;13.266;2023-12-14T11:52:06;9.10;94.00
4425;DHT22;2225;53.568;13.266;2023-12-14T11:54:33;9.10;93.70
4425;DHT22;2225;53.568;13.266;2023-12-14T11:57:01;9.10;93.90
4425;DHT22;2225;53.568;13.266;2023-12-14T11:59:28;9.10;93.90
4425;DHT22;2225;53.568;13.266;2023-12-14T12:01:59;9.10;93.80
4425;DHT22;2225;53.568;13.266;2023-12-14T12:04:28;9.10;93.90
4425;DHT22;2225;53.568;13.266;2023-12-14T12:07:05;9.10;94.10
4425;DHT22;2225;53.568;13.266;2023-12-14T12:09:41;9.10;94.00
4425;DHT22;2225;53.568;13.266;2023-12-14T12:12:10;9.20;94.10
4425;DHT22;2225;53.568;13.266;2023-12-14T12:14:38;9.20;94.20
4425;DHT22;2225;53.568;13.266;2023-12-14T12:17:06;9.20;94.50
4425;DHT22;2225;53.568;13.266;2023-12-14T12:19:34;9.20;94.30
4425;DHT22;2225;53.568;13.266;2023-12-14T12:22:02;9.20;94.10
4425;DHT22;2225;53.568;13.266;2023-12-14T12:24:29;9.30;94.00
4425;DHT22;2225;53.568;13.266;2023-12-14T12:26:59;9.30;93.80
4425;DHT22;2225;53.568;13.266;2023-12-14T12:29:26;9.30;93.80
4425;DHT22;2225;53.568;13.266;2023-12-14T12:31:53;9.30;93.70
4425;DHT22;2225;53.568;13.266;2023-12-14T12:34:20;9.30;93.70
4425;DHT22;2225;53.568;13.266;2023-12-14T12:36:47;9.30;94.00
4425;DHT22;2225;53.568;13.266;2023-12-14T12:39:14;9.30;94.10
4425;DHT22;2225;53.568;13.266;2023-12-14T12:41:42;9.30;94.20
4425;DHT22;2225;53.568;13.266;2023-12-14T12:44:08;9.30;94.20
4425;DHT22;2225;53.568;13.266;2023-12-14T12:46:35;9.30;94.30
4425;DHT22;2225;53.568;13.266;2023-12-14T12:49:03;9.30;94.30
4425;DHT22;2225;53.568;13.266;2023-12-14T12:51:32;9.30;94.30
4425;DHT22;2225;53.568;13.266;2023-12-14T12:54:00;9.30;94.00
4425;DHT22;2225;53.568;13.266;2023-12-14T12:56:38;9.40;93.80
4425;DHT22;2225;53.568;13.266;2023-12-14T12:59:06;9.40;93.90
4425;DHT22;2225;53.568;13.266;2023-12-14T13:01:35;9.40;93.90
4425;DHT22;2225;53.568;13.266;2023-12-14T13:04:02;9.40;93.70
4425;DHT22;2225;53.568;13.266;2023-12-14T13:06:31;9.40;93.70
4425;DHT22;2225;53.568;13.266;2023-12-14T13:08:58;9.30;93.70
4425;DHT22;2225;53.568;13.266;2023-12-14T13:11:25;9.30;93.70
4425;DHT22;2225;53.568;13.266;2023-12-14T13:13:52;9.30;93.70
4425;DHT22;2225;53.568;13.266;2023-12-14T13:16:19;9.30;93.60
4425;DHT22;2225;53.568;13.266;2023-12-14T13:18:46;9.30;93.50
4425;DHT22;2225;53.568;13.266;2023-12-14T13:21:13;9.20;93.40
4425;DHT22;2225;53.568;13.266;2023-12-14T13:23:41;9.30;93.30
4425;DHT22;2225;53.568;13.266;2023-12-14T13:26:08;9.30;93.20
4425;DHT22;2225;53.568;13.266;2023-12-14T13:28:35;9.30;93.40
4425;DHT22;2225;53.568;13.266;2023-12-14T13:31:02;9.30;93.50
4425;DHT22;2225;53.568;13.266;2023-12-14T13:33:30;9.20;93.60
4425;DHT22;2225;53.568;13.266;2023-12-14T13:35:57;9.20;93.60
4425;DHT22;2225;53.568;13.266;2023-12-14T13:38:24;9.20;93.70
4425;DHT22;2225;53.568;13.266;2023-12-14T13:40:51;9.20;93.80
4425;DHT22;2225;53.568;13.266;2023-12-14T13:43:19;9.20;93.80
4425;DHT22;2225;53.568;13.266;2023-12-14T13:45:45;9.20;93.80
4425;DHT22;2225;53.568;13.266;2023-12-14T13:48:27;9.20;93.70
4425;DHT22;2225;53.568;13.266;2023-12-14T13:50:55;9.20;93.70
4425;DHT22;2225;53.568;13.266;2023-12-14T13:53:23;9.20;93.70
4425;DHT22;2225;53.568;13.266;2023-12-14T13:55:50;9.20;93.70
4425;DHT22;2225;53.568;13.266;2023-12-14T13:58:17;9.10;93.90
4425;DHT22;2225;53.568;13.266;2023-12-14T14:00:44;9.20;94.10
4425;DHT22;2225;53.568;13.266;2023-12-14T14:03:12;9.20;94.20
4425;DHT22;2225;53.568;13.266;2023-12-14T14:05:39;9.20;94.20
4425;DHT22;2225;53.568;13.266;2023-12-14T14:08:07;9.20;94.20
4425;DHT22;2225;53.568;13.266;2023-12-14T14:10:42;9.20;94.20
4425;DHT22;2225;53.568;13.266;2023-12-14T14:13:09;9.20;94.20
4425;DHT22;2225;53.568;13.266;2023-12-14T14:15:36;9.30;94.20
4425;DHT22;2225;53.568;13.266;2023-12-14T14:18:03;9.30;94.10
4425;DHT22;2225;53.568;13.266;2023-12-14T14:20:30;9.30;94.40
4425;DHT22;2225;53.568;13.266;2023-12-14T14:22:57;9.30;93.90
4425;DHT22;2225;53.568;13.266;2023-12-14T14:25:26;9.20;93.90
4425;DHT22;2225;53.568;13.266;2023-12-14T14:27:53;9.20;94.10
4425;DHT22;2225;53.568;13.266;2023-12-14T14:30:20;9.20;94.50
4425;DHT22;2225;53.568;13.266;2023-12-14T14:32:47;9.20;94.20
4425;DHT22;2225;53.568;13.266;2023-12-14T14:35:14;9.20;94.10
4425;DHT22;2225;53.568;13.266;2023-12-14T14:37:41;9.20;94.00
4425;DHT22;2225;53.568;13.266;2023-12-14T14:40:13;9.20;94.00
4425;DHT22;2225;53.568;13.266;2023-12-14T14:42:41;9.20;94.00
4425;DHT22;2225;53.568;13.266;2023-12-14T14:45:08;9.20;94.00
4425;DHT22;2225;53.568;13.266;2023-12-14T14:47:36;9.10;93.90
4425;DHT22;2225;53.568;13.266;2023-12-14T14:50:03;9.10;94.00
4425;DHT22;2225;53.568;13.266;2023-12-14T14:52:31;9.00;94.00
4425;DHT22;2225;53.568;13.266;2023-12-14T14:54:58;9.00;94.10
4425;DHT22;2225;53.568;13.266;2023-12-14T14:57:26;8.90;94.20
4425;DHT22;2225;53.568;13.266;2023-12-14T14:59:53;8.90;94.20
4425;DHT22;2225;53.568;13.266;2023-12-14T15:02:20;8.90;94.20
4425;DHT22;2225;53.568;13.266;2023-12-14T15:04:47;8.90;94.20
4425;DHT22;2225;53.568;13.266;2023-12-14T15:07:14;8.80;94.20
4425;DHT22;2225;53.568;13.266;2023-12-14T15:09:41;8.80;94.30
4425;DHT22;2225;53.568;13.266;2023-12-14T15:12:08;8.70;94.70
4425;DHT22;2225;53.568;13.266;2023-12-14T15:14:34;8.70;94.50
4425;DHT22;2225;53.568;13.266;2023-12-14T15:17:01;8.70;94.50
4425;DHT22;2225;53.568;13.266;2023-12-14T15:19:28;8.70;94.50
4425;DHT22;2225;53.568;13.266;2023-12-14T15:21:55;8.70;94.60
4425;DHT22;2225;53.568;13.266;2023-12-14T15:24:22;8.70;94.60
4425;DHT22;2225;53.568;13.266;2023-12-14T15:26:49;8.70;94.60
4425;DHT22;2225;53.568;13.266;2023-12-14T15:29:16;8.60;94.60
4425;DHT22;2225;53.568;13.266;2023-12-14T15:31:43;8.60;94.60
4425;DHT22;2225;53.568;13.266;2023-12-14T15:34:10;8.60;94.60
4425;DHT22;2225;53.568;13.266;2023-12-14T15:36:37;8.60;94.60
4425;DHT22;2225;53.568;13.266;2023-12-14T15:39:04;8.60;94.70
4425;DHT22;2225;53.568;13.266;2023-12-14T15:41:31;8.60;94.80
4425;DHT22;2225;53.568;13.266;2023-12-14T15:43:58;8.60;94.80
4425;DHT22;2225;53.568;13.266;2023-12-14T15:46:25;8.60;94.80
4425;DHT22;2225;53.568;13.266;2023-12-14T15:48:52;8.50;94.70
4425;DHT22;2225;53.568;13.266;2023-12-14T15:51:19;8.50;94.70
4425;DHT22;2225;53.568;13.266;2023-12-14T15:53:46;8.60;94.80
4425;DHT22;2225;53.568;13.266;2023-12-14T15:56:13;8.60;94.90
4425;DHT22;2225;53.568;13.266;2023-12-14T15:58:41;8.50;95.10
4425;DHT22;2225;53.568;13.266;2023-12-14T16:01:08;8.50;95.10
4425;DHT22;2225;53.568;13.266;2023-12-14T16:03:37;8.50;95.20
4425;DHT22;2225;53.568;13.266;2023-12-14T16:06:04;8.50;95.30
4425;DHT22;2225;53.568;13.266;2023-12-14T16:08:31;8.50;95.40